Time;durP1;ratioP1;P1;durP2;ratioP2;P2;SDS_P1;SDS_P2;PMS_P1;PMS_P2;Temp;Humidity;BMP_temperature;BMP_pressure;BME280_temperature;BME280_humidity;BME280_pressure;Samples;Min_cycle;Max_cycle;Signal;HPM_P1;HPM_P2
2022/02/27 00:01:20;;;;;;;6.15;4.00;;;-0.10;99.90;;;;;;5028506;28;20497;-38
2022/02/27 00:03:46;;;;;;;8.85;4.28;;;-0.10;99.90;;;;;;5028077;28;20049;-38
2022/02/27 00:06:12;;;;;;;7.28;3.83;;;-0.20;99.90;;;;;;5031458;28;21712;-39
2022/02/27 00:08:38;;;;;;;8.75;4.65;;;-0.20;99.90;;;;;;5027469;28;20043;-38
2022/02/27 00:11:03;;;;;;;8.82;4.50;;;-0.20;99.90;;;;;;5034533;28;20108;-36
2022/02/27 00:13:29;;;;;;;7.90;4.20;;;-0.10;99.90;;;;;;5031745;28;20381;-36
2022/02/27 00:15:54;;;;;;;7.05;3.67;;;-0.10;99.90;;;;;;5027400;28;20021;-39
2022/02/27 00:18:20;;;;;;;8.80;4.10;;;-0.10;99.90;;;;;;5026104;28;20460;-39
2022/02/27 00:20:47;;;;;;;12.77;4.60;;;-0.40;99.90;;;;;;5029634;28;20032;-39
2022/02/27 00:23:13;;;;;;;6.38;3.53;;;-0.30;99.90;;;;;;5026892;28;20157;-39
2022/02/27 00:25:39;;;;;;;6.90;3.78;;;-0.30;99.90;;;;;;5026723;28;20029;-38
2022/02/27 00:28:05;;;;;;;8.02;4.35;;;-0.40;99.90;;;;;;5027648;28;20037;-38
2022/02/27 00:30:30;;;;;;;7.55;3.75;;;-0.50;99.90;;;;;;5030274;28;20022;-39
2022/02/27 00:32:56;;;;;;;6.78;4.32;;;-0.60;99.90;;;;;;5032088;28;20017;-37
2022/02/27 00:35:22;;;;;;;16.10;4.57;;;-0.60;99.90;;;;;;5024487;28;20120;-39
2022/02/27 00:37:47;;;;;;;7.13;4.47;;;-0.60;99.90;;;;;;5021598;28;20066;-39
2022/02/27 00:40:13;;;;;;;6.60;4.43;;;-0.60;99.90;;;;;;5025311;28;20033;-37
2022/02/27 00:42:38;;;;;;;8.68;5.00;;;-0.60;99.90;;;;;;5022853;28;20047;-38
2022/02/27 00:45:05;;;;;;;6.90;4.28;;;-0.70;99.90;;;;;;5022688;28;20413;-37
2022/02/27 00:47:31;;;;;;;5.75;4.20;;;-0.60;99.90;;;;;;5019271;28;20041;-39
2022/02/27 00:49:56;;;;;;;12.50;4.95;;;-0.60;99.90;;;;;;5020480;28;20576;-36
2022/02/27 00:52:22;;;;;;;11.20;3.92;;;-0.70;99.90;;;;;;5023608;28;20056;-38
2022/02/27 00:54:52;;;;;;;7.32;4.80;;;-0.50;99.90;;;;;;5024629;28;20040;-36
2022/02/27 00:57:18;;;;;;;5.30;3.70;;;-0.30;99.90;;;;;;5026837;28;20025;-39
2022/02/27 00:59:45;;;;;;;9.63;4.10;;;-0.30;99.90;;;;;;5026802;28;20567;-36
2022/02/27 01:02:13;;;;;;;11.32;3.60;;;-0.20;99.90;;;;;;5024858;28;20047;-39
2022/02/27 01:04:39;;;;;;;8.30;4.20;;;-0.20;99.90;;;;;;5026833;28;20098;-38
2022/02/27 01:07:05;;;;;;;10.07;4.55;;;-0.50;99.90;;;;;;5026772;28;20116;-39
2022/02/27 01:09:31;;;;;;;5.18;3.63;;;-0.50;99.90;;;;;;5032243;28;20032;-37
2022/02/27 01:11:56;;;;;;;8.10;3.67;;;-0.50;99.90;;;;;;5030300;28;20441;-38
2022/02/27 01:14:22;;;;;;;5.88;3.60;;;-0.50;99.90;;;;;;5030462;28;20083;-39
2022/02/27 01:16:48;;;;;;;5.07;3.70;;;-0.70;99.90;;;;;;5023200;28;20075;-39
2022/02/27 01:19:13;;;;;;;6.82;4.28;;;-0.90;99.90;;;;;;5026203;28;20036;-39
2022/02/27 01:21:39;;;;;;;5.32;3.78;;;-1.00;99.90;;;;;;5028215;28;20478;-39
2022/02/27 01:24:05;;;;;;;8.38;4.55;;;-0.80;99.90;;;;;;5026283;28;20025;-38
2022/02/27 01:26:31;;;;;;;8.23;4.65;;;-0.70;99.90;;;;;;5027553;28;20363;-39
2022/02/27 01:28:57;;;;;;;6.90;3.95;;;-0.50;99.90;;;;;;5026688;28;20155;-39
2022/02/27 01:31:22;;;;;;;9.48;4.20;;;-0.40;99.90;;;;;;5026704;28;20037;-37
2022/02/27 01:33:48;;;;;;;6.80;4.97;;;-0.40;99.90;;;;;;5026117;28;20025;-39
2022/02/27 01:36:14;;;;;;;7.90;4.57;;;-0.40;99.90;;;;;;5027912;28;20040;-39
2022/02/27 01:38:40;;;;;;;6.00;4.90;;;-0.40;99.90;;;;;;5025415;28;20553;-37
2022/02/27 01:41:05;;;;;;;10.90;4.00;;;-0.60;99.90;;;;;;5024384;28;20033;-39
2022/02/27 01:43:31;;;;;;;10.48;4.25;;;-0.70;99.90;;;;;;5023841;28;20118;-38
2022/02/27 01:45:56;;;;;;;10.18;4.28;;;-0.70;99.90;;;;;;5025074;28;20666;-38
2022/02/27 01:48:23;;;;;;;5.90;4.10;;;-0.90;99.90;;;;;;5027629;28;20040;-39
2022/02/27 01:50:49;;;;;;;11.93;5.13;;;-0.90;99.90;;;;;;5232837;22;20050;-39
2022/02/27 01:53:14;;;;;;;13.55;4.50;;;-0.80;99.90;;;;;;4955392;28;20069;-39
2022/02/27 01:55:41;;;;;;;5.97;4.03;;;-0.80;99.90;;;;;;4970740;28;20035;-36
2022/02/27 01:58:06;;;;;;;17.17;3.90;;;-0.80;99.90;;;;;;4955250;28;20035;-37
2022/02/27 02:00:32;;;;;;;6.47;3.10;;;-0.70;99.90;;;;;;4953026;28;20042;-37
2022/02/27 02:02:58;;;;;;;6.88;3.92;;;-0.80;99.90;;;;;;4954412;28;20045;-39
2022/02/27 02:05:24;;;;;;;5.35;2.97;;;-1.10;99.90;;;;;;4952512;28;20448;-37
2022/02/27 02:07:49;;;;;;;10.20;3.55;;;-1.30;99.90;;;;;;4953883;28;20027;-38
2022/02/27 02:10:15;;;;;;;7.53;4.05;;;-1.40;99.90;;;;;;4951718;28;20085;-37
2022/02/27 02:12:43;;;;;;;12.35;4.90;;;-1.50;99.90;;;;;;4965923;28;20031;-37
2022/02/27 02:15:09;;;;;;;8.23;4.07;;;-1.60;99.90;;;;;;4953962;28;20033;-38
2022/02/27 02:17:36;;;;;;;8.20;4.70;;;-1.60;99.90;;;;;;4954351;28;20039;-38
2022/02/27 02:20:03;;;;;;;12.32;4.05;;;-1.60;99.90;;;;;;4954866;28;20726;-39
2022/02/27 02:22:28;;;;;;;6.90;3.97;;;-1.70;99.90;;;;;;4956578;28;20173;-39
2022/02/27 02:24:54;;;;;;;7.63;4.38;;;-1.80;99.90;;;;;;4950979;28;20779;-36
2022/02/27 02:27:20;;;;;;;9.05;3.75;;;-1.80;99.90;;;;;;4955964;28;20050;-35
2022/02/27 02:29:46;;;;;;;7.93;4.75;;;-1.80;99.90;;;;;;4953503;28;20054;-39
2022/02/27 02:32:11;;;;;;;4.68;3.40;;;-1.80;99.90;;;;;;4953627;28;20446;-38
2022/02/27 02:34:37;;;;;;;7.20;4.80;;;-1.70;99.90;;;;;;4953764;28;20443;-39
2022/02/27 02:37:03;;;;;;;3.50;3.15;;;-1.70;99.90;;;;;;4954450;28;20125;-38
2022/02/27 02:39:29;;;;;;;8.70;3.95;;;-1.60;99.90;;;;;;4950243;28;20031;-36
2022/02/27 02:41:59;;;;;;;9.23;4.47;;;-1.40;99.90;;;;;;4951018;28;20472;-39
2022/02/27 02:44:25;;;;;;;5.00;3.28;;;-1.30;99.90;;;;;;4953089;28;20035;-38
2022/02/27 02:46:53;;;;;;;9.85;3.83;;;-1.40;99.90;;;;;;4952413;28;20568;-39
2022/02/27 02:49:18;;;;;;;9.88;3.92;;;-1.40;99.90;;;;;;4949195;28;20062;-39
2022/02/27 02:51:44;;;;;;;10.70;4.43;;;-1.40;99.90;;;;;;4948963;28;20046;-39
2022/02/27 02:54:10;;;;;;;9.27;3.15;;;-1.40;99.90;;;;;;4949502;28;20089;-39
2022/02/27 02:56:36;;;;;;;9.90;3.85;;;-1.30;99.90;;;;;;4951198;28;22230;-38
2022/02/27 02:59:03;;;;;;;6.82;3.67;;;-1.30;99.90;;;;;;4955423;28;20035;-38
2022/02/27 03:01:29;;;;;;;7.65;3.53;;;-1.30;99.90;;;;;;4952773;28;20050;-39
2022/02/27 03:03:56;;;;;;;6.85;3.42;;;-1.20;99.90;;;;;;4957231;28;20042;-37
2022/02/27 03:06:21;;;;;;;5.55;3.70;;;-1.20;99.90;;;;;;4955334;28;20078;-39
2022/02/27 03:08:48;;;;;;;8.90;3.80;;;-1.20;99.90;;;;;;4954438;28;20033;-39
2022/02/27 03:11:21;;;;;;;5.93;4.13;;;-1.10;99.90;;;;;;4954009;28;20074;-39
2022/02/27 03:13:47;;;;;;;7.07;3.28;;;-1.10;99.90;;;;;;4958539;28;20077;-39
2022/02/27 03:16:13;;;;;;;4.80;3.05;;;-1.10;99.90;;;;;;4957559;28;20419;-38
2022/02/27 03:18:39;;;;;;;5.78;3.53;;;-1.20;99.90;;;;;;4956952;28;20035;-39
2022/02/27 03:21:05;;;;;;;4.60;3.03;;;-1.50;99.90;;;;;;4955827;28;20034;-39
2022/02/27 03:23:32;;;;;;;7.88;3.95;;;-1.60;99.90;;;;;;4955285;28;20039;-39
2022/02/27 03:25:59;;;;;;;5.75;4.40;;;-1.70;99.90;;;;;;4957045;28;20027;-39
2022/02/27 03:28:25;;;;;;;6.65;4.18;;;-1.80;99.90;;;;;;4954708;28;20058;-36
2022/02/27 03:30:51;;;;;;;6.07;3.92;;;-1.80;99.90;;;;;;4955112;28;20035;-39
2022/02/27 03:33:16;;;;;;;9.38;4.32;;;-1.80;99.90;;;;;;4942042;28;20027;-38
2022/02/27 03:35:42;;;;;;;8.65;5.53;;;-1.80;99.90;;;;;;4941426;28;20525;-37
2022/02/27 03:38:08;;;;;;;3.85;3.42;;;-1.80;99.90;;;;;;4941596;28;20038;-39
2022/02/27 03:40:34;;;;;;;12.45;3.53;;;-1.70;99.90;;;;;;4941399;28;20031;-38
2022/02/27 03:42:59;;;;;;;6.28;3.97;;;-1.70;99.90;;;;;;4937996;28;20391;-37
2022/02/27 03:45:26;;;;;;;7.22;3.60;;;-1.60;99.90;;;;;;4935439;28;20173;-38
2022/02/27 03:47:54;;;;;;;8.57;4.35;;;-1.60;99.90;;;;;;4933906;28;20023;-39
2022/02/27 03:50:20;;;;;;;7.55;3.60;;;-1.50;99.90;;;;;;4937796;28;20094;-39
2022/02/27 03:52:45;;;;;;;7.72;4.65;;;-1.50;99.90;;;;;;4940601;28;20652;-38
2022/02/27 03:55:14;;;;;;;7.68;4.30;;;-1.40;99.90;;;;;;4938801;28;20479;-37
2022/02/27 03:57:42;;;;;;;8.57;3.60;;;-1.40;99.90;;;;;;4941092;28;20520;-37
2022/02/27 04:00:12;;;;;;;6.88;3.78;;;-1.30;99.90;;;;;;4939231;28;20113;-38
2022/02/27 04:02:37;;;;;;;4.60;3.50;;;-1.30;99.90;;;;;;4936870;28;20114;-39
2022/02/27 04:05:04;;;;;;;5.55;4.00;;;-1.30;99.90;;;;;;4937684;28;20093;-38
2022/02/27 04:07:29;;;;;;;9.77;4.18;;;-1.40;99.90;;;;;;4938361;28;20508;-39
2022/02/27 04:09:55;;;;;;;4.13;3.28;;;-1.40;99.90;;;;;;4939147;28;20031;-39
2022/02/27 04:12:21;;;;;;;6.95;4.53;;;-1.40;99.90;;;;;;4941835;28;20031;-36
2022/02/27 04:14:47;;;;;;;7.07;4.47;;;-1.60;99.90;;;;;;4937970;28;20063;-39
2022/02/27 04:17:12;;;;;;;10.10;5.22;;;-1.70;99.90;;;;;;4938546;28;20972;-39
2022/02/27 04:19:38;;;;;;;6.30;4.35;;;-1.80;99.90;;;;;;4939454;28;20063;-37
2022/02/27 04:22:05;;;;;;;6.70;5.00;;;-1.80;99.90;;;;;;4934469;28;20038;-39
2022/02/27 04:24:30;;;;;;;9.00;4.45;;;-1.70;99.90;;;;;;4936203;28;20039;-39
2022/02/27 04:26:58;;;;;;;6.25;4.00;;;-1.80;99.90;;;;;;4944283;28;20031;-36
2022/02/27 04:29:24;;;;;;;6.82;3.40;;;-1.70;99.90;;;;;;4973509;28;20115;-39
2022/02/27 04:31:50;;;;;;;10.98;4.47;;;-1.80;99.90;;;;;;4943931;28;20042;-39
2022/02/27 04:34:15;;;;;;;10.98;4.53;;;-1.70;99.90;;;;;;4937467;28;20035;-39
2022/02/27 04:36:41;;;;;;;7.88;4.72;;;-1.70;99.90;;;;;;4938180;28;20118;-39
2022/02/27 04:39:07;;;;;;;5.70;4.40;;;-1.80;99.90;;;;;;4936780;28;20125;-39
2022/02/27 04:41:33;;;;;;;6.75;4.53;;;-1.80;99.90;;;;;;4948130;28;20495;-38
2022/02/27 04:43:58;;;;;;;7.05;3.80;;;-1.80;99.90;;;;;;4941676;28;20031;-38
2022/02/27 04:46:24;;;;;;;9.40;4.60;;;-1.80;99.90;;;;;;4937349;28;20019;-39
2022/02/27 04:48:50;;;;;;;5.53;3.92;;;-1.90;99.90;;;;;;4936574;28;20027;-39
2022/02/27 04:51:15;;;;;;;9.00;3.25;;;-1.90;99.90;;;;;;4936909;28;20039;-38
2022/02/27 04:53:41;;;;;;;7.53;3.90;;;-1.90;99.90;;;;;;4936114;28;20447;-39
2022/02/27 04:56:08;;;;;;;9.60;5.05;;;-1.80;99.90;;;;;;4937995;28;20492;-37
2022/02/27 04:58:34;;;;;;;10.25;3.80;;;-1.80;99.90;;;;;;4937949;28;20058;-36
2022/02/27 05:00:59;;;;;;;8.60;4.75;;;-1.70;99.90;;;;;;4935640;28;20134;-39
2022/02/27 05:03:25;;;;;;;10.38;4.00;;;-1.60;99.90;;;;;;4936678;28;20027;-36
2022/02/27 05:05:51;;;;;;;7.55;3.35;;;-1.70;99.90;;;;;;4940010;28;20432;-38
2022/02/27 05:08:17;;;;;;;4.25;3.85;;;-1.70;99.90;;;;;;4936940;28;20097;-39
2022/02/27 05:10:42;;;;;;;6.72;4.38;;;-1.70;99.90;;;;;;4938093;28;20832;-39
2022/02/27 05:13:08;;;;;;;6.95;4.30;;;-1.80;99.90;;;;;;4935090;28;20217;-37
2022/02/27 05:15:34;;;;;;;9.30;4.45;;;-1.80;99.90;;;;;;4936281;28;20035;-36
2022/02/27 05:17:59;;;;;;;8.20;4.80;;;-1.80;99.90;;;;;;4939059;28;20503;-37
2022/02/27 05:20:25;;;;;;;7.20;3.92;;;-1.70;99.90;;;;;;4936985;28;20656;-39
2022/02/27 05:22:51;;;;;;;14.98;4.97;;;-1.70;99.90;;;;;;4938837;28;20027;-39
2022/02/27 05:25:19;;;;;;;7.47;4.22;;;-1.70;99.90;;;;;;4938870;28;20118;-38
2022/02/27 05:27:47;;;;;;;5.68;4.35;;;-1.80;99.90;;;;;;4937757;28;20035;-39
2022/02/27 05:30:13;;;;;;;12.50;4.82;;;-1.80;99.90;;;;;;4937693;28;20035;-36
2022/02/27 05:32:39;;;;;;;8.55;4.13;;;-1.90;99.90;;;;;;4936058;28;20082;-36
2022/02/27 05:35:06;;;;;;;12.68;4.20;;;-1.80;99.90;;;;;;4944897;28;20158;-36
2022/02/27 05:37:32;;;;;;;7.07;3.92;;;-1.80;99.90;;;;;;4943921;28;20431;-39
2022/02/27 05:39:58;;;;;;;8.57;3.75;;;-1.80;99.90;;;;;;4942723;28;20034;-39
2022/02/27 05:42:23;;;;;;;5.68;3.75;;;-1.80;99.90;;;;;;4936152;28;20224;-39
2022/02/27 05:44:49;;;;;;;9.82;3.70;;;-1.70;99.90;;;;;;4940283;28;20055;-38
2022/02/27 05:47:15;;;;;;;7.30;4.13;;;-1.80;99.90;;;;;;4938138;28;20035;-39
2022/02/27 05:49:40;;;;;;;6.15;4.22;;;-1.80;99.90;;;;;;4939104;28;20031;-39
2022/02/27 05:52:06;;;;;;;6.38;3.83;;;-1.80;99.90;;;;;;4937430;28;20058;-39
2022/02/27 05:54:32;;;;;;;10.38;3.78;;;-1.80;99.90;;;;;;4934708;28;20431;-35
2022/02/27 05:56:58;;;;;;;5.15;3.80;;;-2.00;99.90;;;;;;4935752;28;20464;-39
2022/02/27 05:59:24;;;;;;;9.35;4.07;;;-2.00;99.90;;;;;;4937544;28;20093;-39
2022/02/27 06:01:50;;;;;;;10.02;4.70;;;-2.00;99.90;;;;;;4936135;28;20071;-39
2022/02/27 06:04:16;;;;;;;6.50;4.47;;;-2.00;99.90;;;;;;4936594;28;20126;-39
2022/02/27 06:06:42;;;;;;;4.80;3.47;;;-2.00;99.90;;;;;;4937192;28;20496;-36
2022/02/27 06:09:08;;;;;;;6.90;3.65;;;-2.00;99.90;;;;;;4938351;28;20031;-37
2022/02/27 06:11:34;;;;;;;6.80;3.88;;;-2.00;99.90;;;;;;4933099;28;20035;-38
2022/02/27 06:13:59;;;;;;;7.85;4.03;;;-2.00;99.90;;;;;;4934223;28;20031;-39
2022/02/27 06:16:25;;;;;;;5.43;3.33;;;-1.90;99.90;;;;;;4938290;28;20031;-39
2022/02/27 06:18:50;;;;;;;9.52;4.22;;;-1.90;99.90;;;;;;4938701;28;20097;-38
2022/02/27 06:21:16;;;;;;;8.27;4.03;;;-1.90;99.90;;;;;;4934012;28;20042;-38
2022/02/27 06:23:41;;;;;;;5.70;3.30;;;-1.90;99.90;;;;;;4938427;28;20036;-39
2022/02/27 06:26:07;;;;;;;10.38;4.78;;;-2.10;99.90;;;;;;4934406;28;20839;-39
2022/02/27 06:28:33;;;;;;;7.88;4.03;;;-2.10;99.90;;;;;;4936364;28;20035;-39
2022/02/27 06:30:58;;;;;;;7.50;3.75;;;-2.20;99.90;;;;;;4935671;28;20645;-38
2022/02/27 06:33:24;;;;;;;5.90;3.78;;;-2.30;99.90;;;;;;4934420;28;20039;-37
2022/02/27 06:35:49;;;;;;;7.00;4.03;;;-2.40;99.90;;;;;;4936428;28;20038;-37
2022/02/27 06:38:15;;;;;;;15.05;4.47;;;-2.50;99.90;;;;;;4934506;28;20039;-37
2022/02/27 06:40:41;;;;;;;7.70;4.05;;;-2.50;99.90;;;;;;4934076;28;20031;-36
2022/02/27 06:43:08;;;;;;;6.03;4.20;;;-2.50;99.90;;;;;;4936488;28;20508;-39
2022/02/27 06:45:34;;;;;;;5.82;4.55;;;-2.50;99.90;;;;;;4934768;28;20122;-37
2022/02/27 06:48:00;;;;;;;10.18;4.85;;;-2.40;99.90;;;;;;4935181;28;20035;-36
2022/02/27 06:50:26;;;;;;;10.35;4.43;;;-2.30;99.90;;;;;;4937073;28;20409;-38
2022/02/27 06:52:52;;;;;;;7.70;4.47;;;-2.30;99.90;;;;;;4933519;28;20043;-39
2022/02/27 06:55:19;;;;;;;8.43;4.75;;;-2.30;99.90;;;;;;4935866;28;20042;-39
2022/02/27 06:57:46;;;;;;;10.77;4.20;;;-2.20;99.90;;;;;;4934562;28;20650;-38
2022/02/27 07:00:14;;;;;;;4.97;3.92;;;-2.10;99.90;;;;;;4938155;28;20015;-39
2022/02/27 07:02:40;;;;;;;9.55;4.32;;;-2.10;99.90;;;;;;4936440;28;20455;-35
2022/02/27 07:05:06;;;;;;;10.52;4.65;;;-2.00;99.90;;;;;;4941514;28;20027;-37
2022/02/27 07:07:32;;;;;;;4.80;4.30;;;-2.00;99.90;;;;;;4938347;28;20492;-39
2022/02/27 07:10:00;;;;;;;5.13;3.45;;;-1.90;99.90;;;;;;4939292;28;20041;-39
2022/02/27 07:12:29;;;;;;;6.68;3.47;;;-1.90;99.90;;;;;;4934194;28;20571;-36
2022/02/27 07:14:55;;;;;;;10.90;4.22;;;-1.80;99.90;;;;;;4937415;28;20059;-39
2022/02/27 07:17:21;;;;;;;11.25;5.50;;;-1.80;99.90;;;;;;4938100;28;20038;-39
2022/02/27 07:19:47;;;;;;;8.07;3.85;;;-1.70;99.90;;;;;;4940417;28;20051;-39
2022/02/27 07:22:13;;;;;;;6.10;4.70;;;-1.60;99.90;;;;;;4939913;28;20036;-39
2022/02/27 07:24:39;;;;;;;7.82;5.80;;;-1.50;99.90;;;;;;4939058;28;20415;-38
2022/02/27 07:27:05;;;;;;;11.73;4.75;;;-1.40;99.90;;;;;;4939963;28;20122;-38
2022/02/27 07:29:32;;;;;;;8.27;5.20;;;-1.30;99.90;;;;;;4941992;28;20045;-35
2022/02/27 07:31:58;;;;;;;11.80;6.00;;;-1.10;99.90;;;;;;4938616;28;20451;-39
2022/02/27 07:34:24;;;;;;;14.63;5.82;;;-1.00;99.90;;;;;;4939187;28;20121;-39
2022/02/27 07:36:55;;;;;;;9.00;4.75;;;-0.80;99.90;;;;;;4940195;28;20031;-38
2022/02/27 07:39:22;;;;;;;12.60;7.38;;;-0.50;99.90;;;;;;4936935;28;20847;-39
2022/02/27 07:41:48;;;;;;;11.10;5.00;;;-0.30;99.90;;;;;;4934401;28;20047;-36
2022/02/27 07:44:13;;;;;;;11.65;4.95;;;-0.20;99.90;;;;;;4936362;28;20031;-37
2022/02/27 07:46:39;;;;;;;10.70;4.68;;;-0.10;99.90;;;;;;4936179;28;20031;-36
2022/02/27 07:49:06;;;;;;;7.60;5.05;;;0.00;99.90;;;;;;4936872;28;20054;-37
2022/02/27 07:51:32;;;;;;;10.43;5.47;;;0.00;99.90;;;;;;4936445;28;20043;-38
2022/02/27 07:53:57;;;;;;;8.38;5.43;;;0.10;99.90;;;;;;4933722;28;20050;-38
2022/02/27 07:56:23;;;;;;;13.48;6.88;;;0.10;99.90;;;;;;4936508;28;20035;-36
2022/02/27 07:58:49;;;;;;;13.50;5.32;;;0.20;99.90;;;;;;4940288;28;20106;-38
2022/02/27 08:01:15;;;;;;;11.15;6.07;;;0.30;99.90;;;;;;4945023;28;20142;-39
2022/02/27 08:03:40;;;;;;;9.52;6.07;;;0.40;99.90;;;;;;4957155;28;20038;-39
2022/02/27 08:06:06;;;;;;;12.40;6.13;;;0.40;99.90;;;;;;4956364;28;20104;-38
2022/02/27 08:08:33;;;;;;;11.90;5.63;;;0.40;99.90;;;;;;4957787;28;20062;-39
2022/02/27 08:10:59;;;;;;;9.13;5.68;;;0.50;99.90;;;;;;4956856;28;21753;-36
2022/02/27 08:13:24;;;;;;;13.50;6.22;;;0.60;99.90;;;;;;4954975;28;20037;-39
2022/02/27 08:15:50;;;;;;;11.52;5.55;;;0.60;99.90;;;;;;4956784;28;20053;-37
2022/02/27 08:18:17;;;;;;;8.85;5.38;;;0.70;99.90;;;;;;4958182;28;20041;-39
2022/02/27 08:20:43;;;;;;;7.70;5.78;;;0.80;99.90;;;;;;4958344;28;20073;-39
2022/02/27 08:23:08;;;;;;;10.18;5.32;;;1.00;99.90;;;;;;4953174;28;20475;-39
2022/02/27 08:25:34;;;;;;;9.68;5.32;;;1.00;99.90;;;;;;4956904;28;20034;-39
2022/02/27 08:28:00;;;;;;;11.48;7.40;;;1.10;99.90;;;;;;4959042;28;20030;-37
2022/02/27 08:30:25;;;;;;;11.88;6.07;;;1.20;99.90;;;;;;4956716;28;20415;-39
2022/02/27 08:32:51;;;;;;;10.70;6.60;;;1.20;99.90;;;;;;4954217;28;20057;-39
2022/02/27 08:35:17;;;;;;;11.70;5.70;;;1.30;99.90;;;;;;4955507;28;20042;-39
2022/02/27 08:37:43;;;;;;;10.50;6.00;;;1.40;99.90;;;;;;4955389;28;20042;-38
2022/02/27 08:40:09;;;;;;;9.80;5.82;;;1.50;99.90;;;;;;4956549;28;20034;-39
2022/02/27 08:42:35;;;;;;;11.95;6.53;;;1.70;99.90;;;;;;4957310;28;20038;-38
2022/02/27 08:45:00;;;;;;;13.02;5.70;;;1.70;99.90;;;;;;4955049;28;21007;-38
2022/02/27 08:47:26;;;;;;;11.63;6.72;;;1.80;99.90;;;;;;4955262;28;22107;-39
2022/02/27 08:49:52;;;;;;;12.70;5.65;;;1.90;99.90;;;;;;4955883;28;20069;-39
2022/02/27 08:52:18;;;;;;;12.27;5.97;;;2.00;99.90;;;;;;4955104;28;20089;-38
2022/02/27 08:54:46;;;;;;;10.40;5.07;;;2.10;99.90;;;;;;4949428;28;20035;-36
2022/02/27 08:57:12;;;;;;;11.77;6.18;;;2.20;99.90;;;;;;4953397;28;20042;-37
2022/02/27 08:59:38;;;;;;;9.45;5.25;;;2.30;99.90;;;;;;4953293;28;20126;-40
2022/02/27 09:02:04;;;;;;;10.27;5.75;;;2.40;99.90;;;;;;4940223;28;20427;-39
2022/02/27 09:04:29;;;;;;;9.27;5.13;;;2.50;99.90;;;;;;4931444;28;20621;-39
2022/02/27 09:06:55;;;;;;;12.18;5.88;;;2.40;99.90;;;;;;4937042;28;20031;-39
2022/02/27 09:09:21;;;;;;;11.25;5.53;;;2.40;99.90;;;;;;4935328;28;20043;-38
2022/02/27 09:11:46;;;;;;;10.23;4.93;;;2.60;99.90;;;;;;4941678;28;20624;-39
2022/02/27 09:14:12;;;;;;;9.73;4.47;;;2.60;99.90;;;;;;4939080;28;20038;-39
2022/02/27 09:16:37;;;;;;;11.70;5.43;;;2.60;99.90;;;;;;4935267;28;20069;-38
2022/02/27 09:19:03;;;;;;;8.27;4.75;;;2.70;99.90;;;;;;4936763;28;20062;-38
2022/02/27 09:21:29;;;;;;;8.85;4.85;;;2.70;99.90;;;;;;4935677;28;20046;-36
2022/02/27 09:23:57;;;;;;;7.45;3.80;;;2.80;99.90;;;;;;4936361;28;20046;-39
2022/02/27 09:26:24;;;;;;;6.05;4.00;;;2.90;99.90;;;;;;4937055;28;20066;-38
2022/02/27 09:28:50;;;;;;;6.57;4.95;;;2.90;99.90;;;;;;4939466;28;20123;-37
2022/02/27 09:31:16;;;;;;;9.88;4.35;;;3.10;99.90;;;;;;4935340;28;20039;-37
2022/02/27 09:33:42;;;;;;;9.35;5.07;;;3.10;99.90;;;;;;4934480;28;20050;-39
2022/02/27 09:36:10;;;;;;;5.28;3.72;;;3.20;99.90;;;;;;4936483;28;20114;-38
2022/02/27 09:38:37;;;;;;;10.48;4.18;;;3.20;99.90;;;;;;4936355;28;20031;-39
2022/02/27 09:41:03;;;;;;;4.65;3.22;;;3.10;99.90;;;;;;4937126;28;20031;-36
2022/02/27 09:43:29;;;;;;;6.38;4.00;;;3.10;99.90;;;;;;4935091;28;20039;-39
2022/02/27 09:45:55;;;;;;;7.97;3.67;;;3.20;99.90;;;;;;4934068;28;20086;-39
2022/02/27 09:48:21;;;;;;;6.63;3.90;;;3.30;99.90;;;;;;4934134;28;20031;-39
2022/02/27 09:50:51;;;;;;;9.50;4.30;;;3.30;99.90;;;;;;4933401;28;20075;-39
2022/02/27 09:53:17;;;;;;;8.63;4.07;;;3.40;99.90;;;;;;4936547;28;20031;-39
2022/02/27 09:55:43;;;;;;;5.07;3.72;;;3.50;99.90;;;;;;4930818;28;21235;-37
2022/02/27 09:58:09;;;;;;;9.02;5.00;;;3.70;99.90;;;;;;4935264;28;20035;-38
2022/02/27 10:00:35;;;;;;;5.72;3.70;;;3.80;99.40;;;;;;4935698;28;20439;-37
2022/02/27 10:03:11;;;;;;;11.30;5.07;;;3.80;99.90;;;;;;4954068;28;20109;-36
2022/02/27 10:05:42;;;;;;;8.57;3.90;;;4.00;98.60;;;;;;4955988;28;20043;-39
2022/02/27 10:08:09;;;;;;;6.97;3.88;;;4.00;96.90;;;;;;4955702;28;20035;-38
2022/02/27 10:10:36;;;;;;;8.18;3.90;;;4.10;96.30;;;;;;4958158;28;20038;-35
2022/02/27 10:13:02;;;;;;;5.43;3.78;;;4.10;97.20;;;;;;4956891;28;20035;-36
2022/02/27 10:15:28;;;;;;;4.47;3.38;;;4.10;94.60;;;;;;4953080;28;20086;-36
2022/02/27 10:17:54;;;;;;;6.20;3.80;;;4.20;93.50;;;;;;4953863;28;20086;-36
2022/02/27 10:20:25;;;;;;;5.82;4.20;;;4.30;94.20;;;;;;4954986;28;20149;-39
2022/02/27 10:22:54;;;;;;;5.13;3.63;;;4.30;92.20;;;;;;4955737;28;20093;-37
2022/02/27 10:25:28;;;;;;;5.78;3.17;;;4.40;91.20;;;;;;4956845;28;20038;-39
2022/02/27 10:28:04;;;;;;;4.55;3.15;;;4.40;92.20;;;;;;4953661;28;23060;-40
2022/02/27 10:30:31;;;;;;;4.88;3.25;;;4.40;88.80;;;;;;4948812;28;20062;-39
2022/02/27 10:33:03;;;;;;;7.68;3.90;;;4.60;90.80;;;;;;4935214;28;20030;-37
2022/02/27 10:35:41;;;;;;;4.97;3.65;;;4.60;89.30;;;;;;4938981;28;20047;-38
2022/02/27 10:38:14;;;;;;;5.35;2.88;;;4.40;79.40;;;;;;4935291;28;20038;-36
2022/02/27 10:40:46;;;;;;;6.32;3.17;;;4.50;84.00;;;;;;4937191;28;20039;-36
2022/02/27 10:43:12;;;;;;;6.30;3.97;;;4.50;80.50;;;;;;4938885;28;20038;-39
2022/02/27 10:45:39;;;;;;;6.45;3.80;;;4.40;85.00;;;;;;4943145;28;20041;-39
2022/02/27 10:48:07;;;;;;;9.43;4.10;;;4.40;91.00;;;;;;4944661;28;20031;-40
2022/02/27 10:50:34;;;;;;;7.28;4.63;;;4.40;93.20;;;;;;4943328;28;20139;-39
2022/02/27 10:53:00;;;;;;;6.25;3.90;;;4.40;91.50;;;;;;4944999;28;20209;-39
2022/02/27 10:55:26;;;;;;;8.25;3.20;;;4.20;86.10;;;;;;4960609;28;20036;-39
2022/02/27 10:57:52;;;;;;;7.25;4.10;;;4.00;90.20;;;;;;4945651;28;20038;-37
2022/02/27 11:00:19;;;;;;;4.95;3.30;;;3.90;91.10;;;;;;4943196;28;21310;-39
2022/02/27 11:02:59;;;;;;;6.22;3.97;;;3.70;90.70;;;;;;4947177;28;20122;-39
2022/02/27 11:05:27;;;;;;;4.20;3.42;;;3.80;94.30;;;;;;4945116;28;20574;-39
2022/02/27 11:07:58;;;;;;;5.72;3.90;;;3.90;92.30;;;;;;4946505;28;20129;-37
2022/02/27 11:10:27;;;;;;;5.03;3.40;;;4.00;92.20;;;;;;4943932;28;20511;-39
2022/02/27 11:12:53;;;;;;;8.55;4.05;;;4.10;90.90;;;;;;4942745;28;20038;-39
2022/02/27 11:15:21;;;;;;;4.50;2.78;;;4.20;81.30;;;;;;4945367;28;20542;-39
2022/02/27 11:17:47;;;;;;;7.63;3.83;;;4.20;69.60;;;;;;4942220;28;20066;-37
2022/02/27 11:20:14;;;;;;;3.47;2.88;;;4.40;70.30;;;;;;4944571;28;20633;-37
2022/02/27 11:22:40;;;;;;;7.35;3.70;;;4.50;69.50;;;;;;4968639;28;20488;-38
2022/02/27 11:25:08;;;;;;;4.50;2.85;;;4.50;68.60;;;;;;4941706;28;20098;-37
2022/02/27 11:27:36;;;;;;;;;;;4.60;73.10;;;;;;4946236;28;20078;-38
2022/02/27 11:30:02;;;;;;;6.25;3.67;;;4.80;73.20;;;;;;4940614;28;19941;-38
2022/02/27 11:32:28;;;;;;;5.30;3.70;;;4.70;67.20;;;;;;4941633;28;20496;-39
2022/02/27 11:34:54;;;;;;;5.00;3.15;;;4.80;74.10;;;;;;4943775;28;20047;-37
2022/02/27 11:37:48;;;;;;;4.25;2.47;;;4.80;68.00;;;;;;4941175;28;20098;-40
2022/02/27 11:40:31;;;;;;;5.63;2.72;;;4.90;66.80;;;;;;4944798;28;20041;-40
2022/02/27 11:43:00;;;;;;;3.65;2.50;;;4.80;67.80;;;;;;4945434;28;20045;-40
2022/02/27 11:45:34;;;;;;;4.75;3.10;;;5.00;66.20;;;;;;4943907;28;20031;-39
2022/02/27 11:48:01;;;;;;;5.13;3.58;;;4.90;64.40;;;;;;4942837;28;20708;-39
2022/02/27 11:50:28;;;;;;;4.55;3.45;;;5.00;74.80;;;;;;4941037;28;20066;-36
2022/02/27 11:52:54;;;;;;;4.85;3.22;;;4.90;65.70;;;;;;4941386;28;20637;-36
2022/02/27 11:55:42;;;;;;;8.00;3.20;;;4.90;71.20;;;;;;4945492;28;20042;-36
2022/02/27 11:58:43;;;;;;;6.90;3.70;;;4.90;67.20;;;;;;4947775;28;20535;-37
2022/02/27 12:01:11;;;;;;;3.15;2.53;;;4.70;71.90;;;;;;4958738;28;20097;-39
2022/02/27 12:03:38;;;;;;;4.07;2.50;;;5.10;77.00;;;;;;4942386;28;20039;-40
2022/02/27 12:06:06;;;;;;;6.25;2.33;;;5.20;75.60;;;;;;4943863;28;20114;-39
2022/02/27 12:08:43;;;;;;;7.68;3.22;;;5.10;81.30;;;;;;4946048;28;20110;-39
2022/02/27 12:11:27;;;;;;;4.90;3.22;;;5.20;75.30;;;;;;4943025;28;20023;-37
2022/02/27 12:14:00;;;;;;;4.40;3.53;;;5.00;72.00;;;;;;4942985;28;20515;-38
2022/02/27 12:16:52;;;;;;;4.65;3.53;;;5.00;71.00;;;;;;4954179;28;20028;-40
2022/02/27 12:19:30;;;;;;;5.70;3.67;;;5.00;71.50;;;;;;4941950;28;20031;-39
2022/02/27 12:22:00;;;;;;;3.58;2.92;;;5.10;71.90;;;;;;4945843;28;20547;-38
2022/02/27 12:24:36;;;;;;;4.50;2.97;;;5.20;70.30;;;;;;4939817;28;20035;-37
2022/02/27 12:27:07;;;;;;;5.68;3.60;;;5.30;69.10;;;;;;4958594;28;20387;-38
2022/02/27 12:29:33;;;;;;;4.53;3.10;;;5.20;75.10;;;;;;4939858;28;21926;-40
2022/02/27 12:32:08;;;;;;;7.63;3.90;;;5.30;72.90;;;;;;4941325;28;20047;-37
2022/02/27 12:34:35;;;;;;;7.57;3.30;;;5.20;81.30;;;;;;4942518;28;20031;-39
2022/02/27 12:37:02;;;;;;;5.18;3.35;;;5.20;75.30;;;;;;4942544;28;20045;-40
2022/02/27 12:39:34;;;;;;;5.57;3.55;;;5.20;71.30;;;;;;4942412;28;20087;-37
2022/02/27 12:42:01;;;;;;;3.88;3.38;;;5.30;76.10;;;;;;4942927;28;20052;-38
2022/02/27 12:44:30;;;;;;;3.92;3.17;;;5.20;78.70;;;;;;4941362;28;20035;-40
2022/02/27 12:46:56;;;;;;;3.97;3.58;;;5.30;79.00;;;;;;4948205;28;20077;-40